Time;durP1;ratioP1;P1;durP2;ratioP2;P2;SDS_P1;SDS_P2;PMS_P1;PMS_P2;Temp;Humidity;BMP_temperature;BMP_pressure;BME280_temperature;BME280_humidity;BME280_pressure;Samples;Min_cycle;Max_cycle;Signal;HPM_P1;HPM_P2
2022/01/16 00:01:03;;;;;;;67.20;24.00;;;;;;;5.64;53.37;96006.28;4991370;28;20566;-61
2022/01/16 00:06:17;;;;;;;47.72;22.98;;;;;;;5.79;53.17;95870.19;4984747;28;20092;-62
2022/01/16 00:08:42;;;;;;;64.78;22.40;;;;;;;6.85;52.29;95994.09;4992434;28;20096;-62
2022/01/16 00:11:08;;;;;;;51.45;23.15;;;;;;;6.93;51.71;95979.59;4991722;28;20030;-64
2022/01/16 00:13:34;;;;;;;48.08;22.98;;;;;;;6.85;51.71;95949.13;4992202;28;20084;-61
2022/01/16 00:15:59;;;;;;;55.60;23.67;;;;;;;6.97;50.55;95935.69;4991494;28;20023;-62
2022/01/16 00:18:28;;;;;;;59.85;23.83;;;;;;;7.39;50.69;95998.22;4993330;28;20038;-62
2022/01/16 00:20:54;;;;;;;50.38;23.15;;;;;;;7.46;50.55;95991.59;4992591;28;20034;-61
2022/01/16 00:23:25;;;;;;;68.22;23.08;;;;;;;7.41;50.01;95956.41;4991856;28;20026;-62
2022/01/16 00:25:52;;;;;;;48.97;21.92;;;;;;;7.61;49.89;95985.53;4991572;28;20033;-62
2022/01/16 00:28:17;;;;;;;41.50;20.40;;;;;;;7.65;50.13;95964.63;4991449;28;20030;-61
2022/01/16 00:30:43;;;;;;;36.60;20.23;;;;;;;7.46;49.79;95917.47;4990835;28;20045;-62
2022/01/16 00:33:08;;;;;;;40.33;21.08;;;;;;;7.36;49.61;95906.09;4992838;28;20172;-61
2022/01/16 00:35:34;;;;;;;45.20;21.13;;;;;;;7.49;49.37;95940.00;4991382;28;20023;-62
2022/01/16 00:37:59;;;;;;;42.38;20.55;;;;;;;7.77;49.04;95986.34;4991089;28;20030;-62
2022/01/16 00:40:25;;;;;;;34.45;19.63;;;;;;;7.42;49.46;95918.28;4991213;28;20048;-61
2022/01/16 00:42:50;;;;;;;35.42;18.27;;;;;;;7.73;49.14;95988.72;4989964;28;20026;-61
2022/01/16 00:45:16;;;;;;;33.60;18.25;;;;;;;7.49;48.66;95948.72;4991386;28;20033;-62
2022/01/16 00:47:42;;;;;;;30.65;18.00;;;;;;;6.86;49.22;95852.09;4991917;28;20504;-62
2022/01/16 00:50:08;;;;;;;36.42;19.58;;;;;;;7.72;48.51;95959.84;4990538;28;20018;-62
2022/01/16 00:52:33;;;;;;;43.72;19.95;;;;;;;7.34;49.06;95924.09;4990977;28;20034;-61
2022/01/16 00:55:03;;;;;;;42.47;19.58;;;;;;;7.57;49.13;95939.44;4991244;28;20018;-62
2022/01/16 00:57:29;;;;;;;38.35;19.63;;;;;;;7.34;48.46;95921.47;4990760;28;20026;-62
2022/01/16 00:59:55;;;;;;;36.47;19.45;;;;;;;7.21;48.67;95905.03;4990780;28;20023;-62
2022/01/16 01:02:20;;;;;;;34.13;18.35;;;;;;;6.91;49.13;95863.50;4990642;28;20101;-62
2022/01/16 01:04:47;;;;;;;40.75;20.08;;;;;;;7.71;48.59;95977.59;4992167;28;20077;-62
2022/01/16 01:07:13;;;;;;;36.35;19.58;;;;;;;7.16;48.40;95923.53;4990569;28;20030;-61
2022/01/16 01:09:38;;;;;;;29.92;17.75;;;;;;;7.49;48.65;95983.16;4989336;28;20058;-62
2022/01/16 01:12:06;;;;;;;29.70;17.10;;;;;;;7.68;48.36;95994.03;4991012;28;20477;-61
2022/01/16 01:14:53;;;;;;;30.40;17.42;;;;;;;7.56;48.06;96022.59;4989392;28;20023;-62
2022/01/16 01:17:23;;;;;;;30.05;17.20;;;;;;;6.28;50.88;95973.75;4990234;28;20034;-61
2022/01/16 01:19:49;;;;;;;23.80;15.90;;;;;;;5.38;53.35;95922.69;4991442;28;20018;-61
2022/01/16 01:22:14;;;;;;;30.13;15.27;;;;;;;3.67;58.95;95929.91;4990689;28;20107;-61
2022/01/16 01:24:39;;;;;;;34.72;18.02;;;;;;;3.18;61.15;95877.09;4990719;28;20072;-62
2022/01/16 01:27:23;;;;;;;29.75;16.23;;;;;;;3.18;60.10;95871.03;4990318;28;20512;-61
2022/01/16 01:29:59;;;;;;;33.97;17.17;;;;;;;4.12;59.64;95924.50;4990124;28;20022;-61
2022/01/16 01:32:25;;;;;;;41.28;18.02;;;;;;;5.04;57.93;95914.97;4990077;28;20117;-62
2022/01/16 01:34:50;;;;;;;32.85;17.08;;;;;;;5.47;56.40;95916.66;4991684;28;20054;-62
2022/01/16 01:37:15;;;;;;;38.53;18.25;;;;;;;5.79;55.42;95926.41;4990143;28;20037;-61
2022/01/16 01:39:41;;;;;;;39.53;18.23;;;;;;;5.29;55.00;95808.91;4989780;28;20459;-60
2022/01/16 01:42:10;;;;;;;37.40;18.30;;;;;;;6.37;54.72;95923.84;4990411;28;20310;-60
2022/01/16 01:52:51;;;;;;;41.33;19.00;;;;;;;7.17;50.98;95948.97;4990651;28;20560;-62
2022/01/16 01:55:18;;;;;;;34.80;18.20;;;;;;;6.76;51.20;95872.19;4990306;28;20029;-63
2022/01/16 01:57:43;;;;;;;35.83;18.70;;;;;;;6.75;50.46;95883.78;4989757;28;20033;-62
2022/01/16 02:00:09;;;;;;;67.80;22.52;;;;;;;7.37;50.97;95976.50;4990021;28;20261;-62
2022/01/16 02:02:49;;;;;;;42.42;19.52;;;;;;;6.61;50.65;95924.22;4990444;28;20023;-62
2022/01/16 02:05:14;;;;;;;48.88;17.85;;;;;;;3.39;57.74;95886.09;4984831;28;20121;-60
2022/01/16 02:07:40;;;;;;;43.15;19.50;;;;;;;3.51;61.27;95993.84;4989655;28;20552;-61
2022/01/16 02:10:05;;;;;;;35.33;18.00;;;;;;;4.14;59.27;95966.38;4989668;28;20479;-61
2022/01/16 02:12:33;;;;;;;49.10;16.95;;;;;;;2.81;60.20;95867.00;4988834;28;20031;-61
2022/01/16 02:15:07;;;;;;;44.13;19.73;;;;;;;3.91;60.42;95983.97;4990286;28;20026;-60
2022/01/16 02:28:47;;;;;;;41.03;19.30;;;;;;;4.74;56.39;95949.72;4994096;28;20045;-61
2022/01/16 02:31:18;;;;;;;52.13;20.20;;;;;;;4.48;55.62;95827.47;4992054;28;20523;-61
2022/01/16 02:36:27;;;;;;;47.50;21.30;;;;;;;6.39;54.48;95977.22;4993938;28;20370;-62
2022/01/16 02:39:13;;;;;;;47.30;19.17;;;;;;;5.88;54.32;95918.78;4993680;28;20378;-61
2022/01/16 02:41:41;;;;;;;49.28;19.08;;;;;;;6.29;53.36;95933.06;4993812;28;20037;-61
2022/01/16 02:44:21;;;;;;;58.08;19.83;;;;;;;5.16;54.38;95862.06;4993667;28;20034;-61
2022/01/16 02:46:47;;;;;;;50.65;20.40;;;;;;;6.08;54.45;95960.41;4992965;28;20018;-61
2022/01/16 02:49:33;;;;;;;55.15;21.65;;;;;;;6.40;54.39;95952.41;4994436;28;20085;-61
2022/01/16 02:52:11;;;;;;;44.30;20.17;;;;;;;6.53;54.66;95937.94;4993417;28;20033;-61
2022/01/16 02:54:40;;;;;;;61.03;22.17;;;;;;;6.35;53.57;95939.97;4993479;28;20022;-61
2022/01/16 02:57:08;;;;;;;46.88;19.00;;;;;;;5.70;54.34;95918.16;4993295;28;20026;-62
2022/01/16 02:59:34;;;;;;;75.20;20.83;;;;;;;5.86;54.04;95931.47;4992922;28;20030;-62
2022/01/16 03:02:01;;;;;;;47.17;20.48;;;;;;;6.04;53.56;95898.56;4992870;28;20037;-62
2022/01/16 03:04:27;;;;;;;50.28;21.13;;;;;;;6.59;53.44;95934.25;4994639;28;20380;-62
2022/01/16 03:06:52;;;;;;;45.40;20.48;;;;;;;6.08;52.99;95818.59;4992876;28;20029;-62
2022/01/16 03:09:19;;;;;;;46.38;19.88;;;;;;;6.40;52.62;95841.44;4992595;28;20023;-62
2022/01/16 03:11:49;;;;;;;52.42;20.85;;;;;;;6.74;52.67;95927.16;4993273;28;20026;-61
2022/01/16 03:14:21;;;;;;;43.75;19.75;;;;;;;6.76;52.80;95895.97;4993158;28;20026;-61
2022/01/16 03:16:50;;;;;;;44.70;17.83;;;;;;;6.61;52.22;95860.78;4992409;28;20026;-61
2022/01/16 03:22:04;;;;;;;54.50;23.35;;;;;;;5.38;55.62;95891.03;4993191;28;20046;-61
2022/01/16 03:24:39;;;;;;;59.42;23.35;;;;;;;5.86;55.08;95873.38;4992953;28;20472;-60
2022/01/16 03:27:16;;;;;;;54.10;23.40;;;;;;;5.96;54.86;95831.22;4992805;28;20031;-61
2022/01/16 03:29:45;;;;;;;51.00;23.15;;;;;;;6.66;54.66;95903.09;4992748;28;20483;-60
2022/01/16 03:32:15;;;;;;;48.67;22.70;;;;;;;6.44;53.85;95837.97;4992174;28;20038;-61
2022/01/16 03:34:41;;;;;;;56.53;24.35;;;;;;;6.55;53.29;95896.94;4994078;28;20457;-61
2022/01/16 03:37:07;;;;;;;61.72;24.73;;;;;;;6.74;53.66;95876.91;4992074;28;20035;-61
2022/01/16 03:39:33;;;;;;;52.15;22.88;;;;;;;7.04;53.59;95904.50;4992071;28;20030;-61
2022/01/16 03:42:00;;;;;;;52.15;23.30;;;;;;;6.91;53.01;95858.19;4992714;28;20038;-61
2022/01/16 03:44:27;;;;;;;65.45;23.65;;;;;;;6.53;52.05;95816.34;4992448;28;20034;-61
2022/01/16 03:46:52;;;;;;;48.33;23.23;;;;;;;7.26;52.26;95905.03;4991841;28;20034;-61
2022/01/16 03:49:21;;;;;;;50.13;22.35;;;;;;;5.33;51.38;95583.13;4993417;28;20388;-61
2022/01/16 03:51:48;;;;;;;52.88;23.27;;;;;;;7.31;51.70;95880.44;4991289;28;20045;-61
2022/01/16 03:54:17;;;;;;;43.95;22.33;;;;;;;6.81;51.48;95797.38;4991353;28;20039;-61
2022/01/16 03:56:43;;;;;;;42.38;21.73;;;;;;;7.45;51.08;95909.81;4991653;28;20022;-61
2022/01/16 03:59:09;;;;;;;43.47;22.00;;;;;;;7.43;50.95;95885.47;4991844;28;20025;-61
2022/01/16 04:01:34;;;;;;;40.20;20.60;;;;;;;6.56;50.33;95799.97;4991965;28;20073;-61
2022/01/16 04:04:00;;;;;;;33.95;19.33;;;;;;;6.36;50.88;95751.31;4993501;28;20050;-61
2022/01/16 04:06:26;;;;;;;36.40;19.85;;;;;;;7.10;50.65;95876.97;4993204;28;20034;-61
2022/01/16 04:08:54;;;;;;;33.63;20.05;;;;;;;5.38;50.20;95629.84;4991766;28;20073;-62
2022/01/16 04:11:20;;;;;;;34.08;19.80;;;;;;;7.02;50.12;95869.59;4991667;28;20038;-62
2022/01/16 04:13:55;;;;;;;40.75;20.10;;;;;;;5.87;50.11;95706.00;4992079;28;20528;-61
2022/01/16 04:16:23;;;;;;;59.97;18.58;;;;;;;4.54;53.54;95818.56;4991775;28;20397;-61
2022/01/16 04:18:51;;;;;;;62.40;20.35;;;;;;;4.77;56.46;95943.19;4992937;28;20105;-61
2022/01/16 04:21:22;;;;;;;38.78;20.45;;;;;;;3.63;55.84;95678.88;4990093;28;20436;-61
2022/01/16 04:23:48;;;;;;;55.33;21.10;;;;;;;2.13;58.52;95638.75;4991635;28;20034;-61
2022/01/16 04:26:15;;;;;;;76.65;17.10;;;;;;;0.90;63.91;95704.59;4992012;28;20049;-61
2022/01/16 04:28:41;;;;;;;69.32;18.70;;;;;;;1.74;64.60;95849.25;4991637;28;20489;-61
2022/01/16 04:31:08;;;;;;;94.47;19.95;;;;;;;2.56;64.08;95919.91;4991244;28;20198;-61
2022/01/16 04:33:33;;;;;;;71.07;20.08;;;;;;;1.48;61.39;95572.63;4991491;28;20022;-61
2022/01/16 04:35:59;;;;;;;54.75;20.70;;;;;;;4.21;60.05;95889.84;4992392;28;20479;-61
2022/01/16 04:38:25;;;;;;;58.63;20.55;;;;;;;2.47;60.43;95760.34;4990886;28;20058;-61
2022/01/16 04:43:47;;;;;;;42.65;20.45;;;;;;;3.30;61.69;95938.28;4991469;28;20093;-59
2022/01/16 04:46:13;;;;;;;40.72;21.17;;;;;;;0.34;62.61;95561.22;4991444;28;20118;-59
2022/01/16 04:48:38;;;;;;;40.97;21.48;;;;;;;3.02;60.16;95789.31;4991366;28;20109;-61
2022/01/16 04:51:03;;;;;;;45.13;22.00;;;;;;;3.51;59.44;95807.09;4990988;28;20026;-61
2022/01/16 04:53:29;;;;;;;42.55;21.92;;;;;;;3.94;58.63;95903.69;4991128;28;20027;-60
2022/01/16 04:55:55;;;;;;;46.22;22.45;;;;;;;1.16;62.26;95597.72;4991350;28;20029;-60
2022/01/16 04:58:21;;;;;;;43.70;21.05;;;;;;;1.10;61.24;95603.91;4989637;28;20030;-60
2022/01/16 05:00:47;;;;;;;48.08;22.27;;;;;;;1.78;60.42;95588.06;4990709;28;20045;-60
2022/01/16 05:03:12;;;;;;;47.70;23.60;;;;;;;2.63;59.00;95653.69;4990552;28;20053;-60
2022/01/16 05:05:38;;;;;;;42.03;23.00;;;;;;;2.81;58.88;95753.25;4992328;28;20480;-61
2022/01/16 05:08:03;;;;;;;43.80;23.25;;;;;;;2.50;59.03;95697.59;4990343;28;20152;-60
2022/01/16 05:10:29;;;;;;;43.47;23.23;;;;;;;2.32;61.88;95803.66;4990726;28;20034;-60
2022/01/16 05:13:04;;;;;;;45.53;24.60;;;;;;;4.00;59.34;95978.28;4990904;28;20035;-60
2022/01/16 05:18:18;;;;;;;40.28;23.83;;;;;;;2.31;60.69;95765.31;4988751;28;20045;-60
2022/01/16 05:20:44;;;;;;;41.53;23.63;;;;;;;3.74;60.54;95974.50;4991639;28;20388;-60
2022/01/16 05:23:09;;;;;;;40.47;22.63;;;;;;;3.80;59.43;95947.22;4990649;28;20109;-60
2022/01/16 05:25:35;;;;;;;41.15;23.65;;;;;;;1.79;60.88;95685.91;4990882;28;20022;-60
2022/01/16 05:28:00;;;;;;;41.47;22.70;;;;;;;2.73;63.38;95913.91;4990311;28;20469;-60
2022/01/16 05:30:26;;;;;;;48.85;26.05;;;;;;;2.65;61.53;95809.19;4990342;28;20060;-60
2022/01/16 05:32:51;;;;;;;45.97;25.35;;;;;;;3.64;61.46;95965.41;4990213;28;20176;-60
2022/01/16 05:35:17;;;;;;;46.08;26.70;;;;;;;2.33;59.19;95628.56;4991912;28;20018;-60
2022/01/16 05:37:42;;;;;;;47.55;24.60;;;;;;;1.04;61.67;95614.28;4990115;28;20029;-60
2022/01/16 05:40:07;;;;;;;42.05;25.08;;;;;;;3.63;59.78;95860.38;4990133;28;20038;-60
2022/01/16 05:42:33;;;;;;;32.53;20.45;;;;;;;0.73;63.70;95712.34;4990748;28;20066;-59
2022/01/16 05:44:59;;;;;;;36.38;23.02;;;;;;;0.71;65.74;95743.19;4990461;28;20120;-60
2022/01/16 05:47:24;;;;;;;39.05;23.08;;;;;;;0.66;65.56;95731.81;4989605;28;20034;-60
2022/01/16 05:49:50;;;;;;;37.30;23.13;;;;;;;-0.07;65.69;95660.47;4991195;28;20399;-60
2022/01/16 05:52:15;;;;;;;37.65;23.38;;;;;;;1.64;66.67;95992.44;4990351;28;20036;-61
2022/01/16 05:54:40;;;;;;;38.33;22.33;;;;;;;-1.05;66.27;95566.78;4990547;28;20030;-60
2022/01/16 05:57:06;;;;;;;43.50;25.00;;;;;;;1.76;65.84;95930.31;4989969;28;20476;-59
2022/01/16 05:59:32;;;;;;;43.85;24.70;;;;;;;0.32;66.48;95783.88;4989637;28;20064;-60
2022/01/16 06:01:57;;;;;;;39.80;22.52;;;;;;;1.61;67.13;95996.31;4989672;28;20054;-60
2022/01/16 06:04:22;;;;;;;46.25;27.17;;;;;;;2.22;64.23;95921.59;4991374;28;20122;-60
2022/01/16 06:06:48;;;;;;;41.20;25.08;;;;;;;1.32;64.59;95898.38;4989552;28;20650;-60
2022/01/16 06:09:13;;;;;;;41.00;26.27;;;;;;;2.30;64.21;95986.06;4989620;28;20050;-59
2022/01/16 06:11:38;;;;;;;49.22;27.85;;;;;;;0.89;65.02;95813.03;4990071;28;20077;-60
2022/01/16 06:14:04;;;;;;;42.25;25.67;;;;;;;1.31;62.57;95794.56;4990199;28;20034;-60
2022/01/16 06:16:30;;;;;;;43.90;23.98;;;;;;;0.01;63.50;95664.59;4989593;28;20500;-59
2022/01/16 06:18:56;;;;;;;46.25;26.23;;;;;;;2.02;65.20;95998.06;4989148;28;20042;-60
2022/01/16 06:21:21;;;;;;;51.67;29.52;;;;;;;2.30;62.45;95902.03;4991248;28;20042;-60
2022/01/16 06:23:47;;;;;;;45.35;25.65;;;;;;;2.66;62.81;95979.69;4989859;28;20027;-60
2022/01/16 06:26:12;;;;;;;49.25;27.65;;;;;;;2.59;62.09;95968.53;4989949;28;20416;-60
2022/01/16 06:28:37;;;;;;;43.92;26.92;;;;;;;2.86;61.58;95974.81;4989520;28;20030;-59
2022/01/16 06:31:03;;;;;;;42.50;25.65;;;;;;;2.84;61.61;95987.41;4989310;28;20476;-60
2022/01/16 06:33:28;;;;;;;47.03;26.83;;;;;;;2.56;62.01;95982.16;4989155;28;20026;-62
2022/01/16 06:35:54;;;;;;;46.58;26.27;;;;;;;1.78;63.50;95902.03;4991151;28;20030;-60
2022/01/16 06:38:19;;;;;;;44.15;27.23;;;;;;;3.07;60.44;95936.59;4990423;28;20515;-60
2022/01/16 06:40:45;;;;;;;41.33;24.35;;;;;;;1.47;62.35;95848.91;4987979;28;20073;-60
2022/01/16 06:43:10;;;;;;;46.00;26.77;;;;;;;0.28;62.60;95656.34;4989829;28;20030;-60
2022/01/16 06:45:36;;;;;;;46.00;27.42;;;;;;;2.64;61.98;95950.25;4989784;28;20087;-60
2022/01/16 06:48:01;;;;;;;43.95;26.83;;;;;;;2.20;61.84;95875.59;4988853;28;20038;-60
2022/01/16 06:50:27;;;;;;;45.75;26.52;;;;;;;1.23;61.42;95718.94;4990614;28;20473;-60
2022/01/16 06:52:52;;;;;;;43.08;25.67;;;;;;;1.57;61.35;95814.25;4989481;28;20026;-60
2022/01/16 06:55:17;;;;;;;43.47;26.38;;;;;;;2.58;63.33;96003.72;4989659;28;20023;-60
2022/01/16 06:57:43;;;;;;;45.80;24.70;;;;;;;1.56;63.46;95920.97;4989735;28;20424;-60
2022/01/16 07:00:09;;;;;;;53.60;28.85;;;;;;;1.79;62.89;95853.78;4989314;28;20041;-60
2022/01/16 07:02:35;;;;;;;52.70;26.92;;;;;;;2.52;62.19;95989.69;4989315;28;20114;-60
2022/01/16 07:05:02;;;;;;;50.55;28.55;;;;;;;2.01;61.39;95920.38;4989288;28;20392;-60
2022/01/16 07:07:28;;;;;;;51.53;29.35;;;;;;;2.32;62.00;95973.50;4989326;28;20025;-60
2022/01/16 07:09:53;;;;;;;56.67;31.75;;;;;;;2.32;60.40;95932.28;4989020;28;20034;-60
2022/01/16 07:12:19;;;;;;;64.25;32.58;;;;;;;3.24;59.84;96009.44;4991412;28;20104;-60
2022/01/16 07:14:44;;;;;;;61.08;31.35;;;;;;;2.02;62.19;95968.41;4991932;28;20026;-60
2022/01/16 07:17:09;;;;;;;59.58;29.65;;;;;;;1.79;62.40;95917.56;4992673;28;20085;-60
2022/01/16 07:19:35;;;;;;;63.90;32.60;;;;;;;2.63;60.61;96001.19;4993434;28;20034;-60
2022/01/16 07:22:00;;;;;;;64.30;32.70;;;;;;;2.41;60.51;95964.25;4992905;28;20134;-60
2022/01/16 07:24:26;;;;;;;59.85;31.90;;;;;;;2.35;61.29;95938.91;4993008;28;20679;-60
2022/01/16 07:26:51;;;;;;;53.55;29.20;;;;;;;1.86;61.93;95958.59;4992457;28;20030;-60
2022/01/16 07:29:17;;;;;;;48.60;28.00;;;;;;;1.99;63.06;96016.88;4992652;28;20456;-60
2022/01/16 07:31:42;;;;;;;49.60;28.70;;;;;;;2.72;61.36;96020.81;4993268;28;20531;-60
2022/01/16 07:34:08;;;;;;;46.63;28.67;;;;;;;2.24;61.84;96007.97;4993811;28;20034;-60
2022/01/16 07:36:34;;;;;;;49.15;29.02;;;;;;;2.78;60.38;95992.81;4993673;28;20050;-60
2022/01/16 07:39:00;;;;;;;50.08;27.13;;;;;;;2.52;60.11;96015.94;4992232;28;20035;-60
2022/01/16 07:41:25;;;;;;;49.08;28.35;;;;;;;1.94;61.12;95919.69;4992746;28;20034;-61
2022/01/16 07:43:52;;;;;;;40.25;25.35;;;;;;;2.61;60.93;95984.88;4992623;28;20141;-63
2022/01/16 07:46:17;;;;;;;43.45;26.75;;;;;;;3.17;58.99;96035.03;4992328;28;20520;-63
2022/01/16 07:48:43;;;;;;;45.33;27.75;;;;;;;1.93;60.17;95896.31;4993398;28;20117;-62
2022/01/16 07:51:09;;;;;;;39.28;24.15;;;;;;;1.53;62.29;95945.00;4993245;28;20065;-64
2022/01/16 07:53:35;;;;;;;41.95;25.42;;;;;;;2.47;61.74;96076.22;4992336;28;20050;-65
2022/01/16 07:56:00;;;;;;;43.15;25.42;;;;;;;2.36;59.45;95964.16;4992280;28;20428;-64
2022/01/16 07:58:26;;;;;;;39.83;25.83;;;;;;;1.72;61.34;95893.25;4990764;28;20070;-62
2022/01/16 08:00:51;;;;;;;37.03;23.65;;;;;;;2.73;61.18;96061.00;4991917;28;20050;-62
2022/01/16 08:03:17;;;;;;;38.72;24.05;;;;;;;3.35;58.88;96067.22;4991802;28;20018;-59
2022/01/16 08:05:43;;;;;;;34.92;21.65;;;;;;;2.36;60.96;96074.41;4993704;28;20038;-61
2022/01/16 08:08:08;;;;;;;30.80;19.92;;;;;;;2.18;62.37;96066.63;4991687;28;20042;-60
2022/01/16 08:10:34;;;;;;;33.58;22.38;;;;;;;3.29;60.03;96072.63;4991741;28;20121;-60
2022/01/16 08:12:59;;;;;;;34.28;21.80;;;;;;;2.82;59.75;96063.06;4992096;28;20030;-63
2022/01/16 08:15:25;;;;;;;38.28;22.90;;;;;;;2.13;62.40;96037.66;4992333;28;20117;-62
2022/01/16 08:17:51;;;;;;;42.05;25.50;;;;;;;2.04;60.92;95950.59;4991389;28;20030;-62
2022/01/16 08:20:16;;;;;;;39.50;24.60;;;;;;;3.20;59.96;96059.03;4991271;28;20029;-64
2022/01/16 08:22:43;;;;;;;27.83;17.33;;;;;;;1.96;60.73;96021.81;4992401;28;20022;-63
2022/01/16 08:25:09;;;;;;;31.20;20.20;;;;;;;1.82;59.98;95913.66;4990462;28;20070;-62
2022/01/16 08:27:34;;;;;;;25.58;18.45;;;;;;;1.15;58.94;95769.84;4991687;28;20532;-61
2022/01/16 08:30:00;;;;;;;27.88;18.25;;;;;;;3.27;59.04;96058.91;4991372;28;20030;-62
2022/01/16 08:32:25;;;;;;;22.48;14.77;;;;;;;1.49;58.72;95819.88;4991568;28;20027;-62
2022/01/16 08:34:51;;;;;;;23.88;17.20;;;;;;;2.26;56.98;95878.09;4992702;28;20050;-61
2022/01/16 08:37:16;;;;;;;27.42;17.23;;;;;;;1.93;58.25;95839.38;4990929;28;20113;-60
2022/01/16 08:39:42;;;;;;;25.13;16.08;;;;;;;2.27;59.03;95936.66;4991138;28;20041;-61
2022/01/16 08:42:07;;;;;;;26.70;17.52;;;;;;;2.94;59.65;96038.56;4991635;28;20169;-61
2022/01/16 08:44:33;;;;;;;28.23;19.40;;;;;;;3.14;58.34;95962.72;4991494;28;20153;-61
2022/01/16 08:46:59;;;;;;;30.75;19.77;;;;;;;2.41;57.24;95851.34;4991016;28;20501;-62
2022/01/16 08:49:24;;;;;;;29.55;19.10;;;;;;;1.73;59.33;95845.00;4990631;28;20044;-61
2022/01/16 08:51:49;;;;;;;29.70;18.98;;;;;;;2.85;59.65;96049.44;4992420;28;20559;-62
2022/01/16 08:54:15;;;;;;;27.73;18.27;;;;;;;2.04;58.71;95849.03;4991567;28;20034;-61
2022/01/16 08:56:41;;;;;;;28.40;18.92;;;;;;;2.73;57.43;95887.63;4991209;28;20460;-61
2022/01/16 08:59:06;;;;;;;27.48;18.92;;;;;;;2.63;56.64;95838.34;4990922;28;20095;-61
2022/01/16 09:01:32;;;;;;;24.75;16.48;;;;;;;2.73;57.68;95938.34;4990995;28;20466;-61
2022/01/16 09:03:57;;;;;;;26.83;18.73;;;;;;;3.61;56.05;95991.38;4990314;28;20027;-61
2022/01/16 09:06:23;;;;;;;27.42;18.38;;;;;;;2.87;56.80;95899.44;4992446;28;20029;-62
2022/01/16 09:08:48;;;;;;;24.92;17.88;;;;;;;3.53;56.55;95968.91;4990580;28;20472;-62
2022/01/16 09:11:14;;;;;;;25.90;17.55;;;;;;;3.01;56.19;95924.38;4990515;28;20038;-62
2022/01/16 09:13:40;;;;;;;24.23;16.35;;;;;;;3.26;56.57;96017.88;4990981;28;20500;-62
2022/01/16 09:16:07;;;;;;;22.42;16.20;;;;;;;3.18;56.87;95984.88;4990987;28;20041;-61
2022/01/16 09:18:33;;;;;;;26.20;17.48;;;;;;;4.10;55.96;96057.44;4990094;28;20401;-60
2022/01/16 09:21:00;;;;;;;22.98;16.55;;;;;;;3.13;56.85;95958.50;4990281;28;20058;-61
2022/01/16 09:23:25;;;;;;;24.75;17.48;;;;;;;2.16;56.73;95759.81;4990621;28;20034;-62
2022/01/16 09:25:51;;;;;;;25.33;17.73;;;;;;;3.80;56.03;95952.47;4990772;28;20037;-61
2022/01/16 09:28:16;;;;;;;25.80;17.23;;;;;;;3.01;56.91;95934.09;4990378;28;20113;-61
2022/01/16 09:30:42;;;;;;;27.63;16.75;;;;;;;3.97;57.03;96042.75;4990199;28;20029;-61
2022/01/16 09:33:08;;;;;;;24.70;16.73;;;;;;;3.50;56.12;95911.50;4990292;28;20056;-62
2022/01/16 09:35:33;;;;;;;21.15;15.65;;;;;;;2.49;55.77;95755.63;4989997;28;20419;-62
2022/01/16 09:38:00;;;;;;;20.27;15.02;;;;;;;3.43;55.39;95905.63;4989909;28;20023;-62
2022/01/16 09:40:26;;;;;;;18.38;13.70;;;;;;;3.73;55.71;95951.81;4990054;28;20077;-62
2022/01/16 09:42:52;;;;;;;15.05;9.23;;;;;;;1.90;55.84;95771.66;4990417;28;20190;-62
2022/01/16 09:45:19;;;;;;;19.00;11.75;;;;;;;2.34;55.92;95887.44;4990567;28;20387;-63
2022/01/16 09:47:47;;;;;;;23.42;14.10;;;;;;;4.36;54.89;96090.22;4990130;28;20026;-63
2022/01/16 09:50:20;;;;;;;17.80;12.45;;;;;;;2.55;55.14;95797.47;4990634;28;20019;-62
2022/01/16 09:52:48;;;;;;;18.40;13.48;;;;;;;4.80;53.63;96053.38;4990242;28;20033;-62
2022/01/16 09:55:14;;;;;;;16.73;10.90;;;;;;;3.79;53.63;95956.16;4990030;28;20501;-60
2022/01/16 09:57:40;;;;;;;17.42;12.07;;;;;;;4.32;54.12;96028.50;4989876;28;20033;-61
2022/01/16 10:00:10;;;;;;;19.00;13.15;;;;;;;4.97;53.79;96083.13;4989851;28;20080;-61
2022/01/16 10:02:36;;;;;;;16.98;11.80;;;;;;;4.58;52.80;96027.00;4990290;28;20022;-61
2022/01/16 10:05:40;;;;;;;19.27;12.32;;;;;;;3.92;54.46;95976.84;4989569;28;20088;-61
2022/01/16 10:08:08;;;;;;;16.13;10.23;;;;;;;4.03;54.64;96009.38;4987878;28;20045;-61
2022/01/16 10:10:40;;;;;;;20.75;13.13;;;;;;;4.35;54.93;96044.63;4989575;28;20034;-61
2022/01/16 10:13:37;;;;;;;20.75;13.70;;;;;;;4.73;53.50;96029.06;4990093;28;20033;-61
2022/01/16 10:16:03;;;;;;;20.33;12.93;;;;;;;4.43;54.21;95998.63;4989904;28;20034;-62
2022/01/16 10:18:37;;;;;;;21.85;15.00;;;;;;;4.42;53.88;95982.03;4989190;28;20023;-62
2022/01/16 10:21:03;;;;;;;17.95;12.65;;;;;;;4.51;54.72;96035.09;4990958;28;20015;-63
2022/01/16 10:23:29;;;;;;;22.10;12.02;;;;;;;4.34;54.53;96010.63;4988489;28;20649;-62
2022/01/16 10:25:54;;;;;;;18.92;12.85;;;;;;;5.03;54.21;96063.69;4988572;28;20050;-61
2022/01/16 10:28:26;;;;;;;19.08;13.45;;;;;;;5.27;54.43;96055.50;4988656;28;20020;-62
2022/01/16 10:30:55;;;;;;;16.75;12.88;;;;;;;5.27;53.46;96048.38;4989784;28;20034;-62
2022/01/16 10:33:23;;;;;;;18.48;13.00;;;;;;;4.85;54.21;95983.06;4989592;28;20096;-62
2022/01/16 10:35:51;;;;;;;18.83;12.85;;;;;;;5.26;54.12;96054.72;4990441;28;20037;-61
2022/01/16 10:38:22;;;;;;;18.60;13.00;;;;;;;5.14;53.59;96033.75;4989541;28;20480;-61
2022/01/16 10:40:50;;;;;;;19.70;14.30;;;;;;;5.78;52.84;96054.16;4990053;28;20069;-63
2022/01/16 10:43:35;;;;;;;16.63;13.55;;;;;;;5.51;53.78;96034.91;4989577;28;20022;-62
2022/01/16 10:46:00;;;;;;;17.83;13.90;;;;;;;5.92;51.61;96013.13;4989688;28;20695;-64
2022/01/16 10:48:26;;;;;;;22.00;12.13;;;;;;;4.98;54.51;95989.81;4992724;28;20058;-64
2022/01/16 10:50:52;;;;;;;10.65;8.68;;;;;;;4.83;55.00;96023.91;4994186;28;20415;-64
2022/01/16 10:53:23;;;;;;;16.02;12.80;;;;;;;5.83;53.92;96043.63;4993040;28;20033;-65
2022/01/16 10:55:54;;;;;;;13.88;9.63;;;;;;;4.43;55.22;95919.59;4993239;28;20037;-64
2022/01/16 10:58:21;;;;;;;15.00;9.88;;;;;;;5.13;55.50;96063.03;4993038;28;20365;-66
2022/01/16 11:00:53;;;;;;;14.32;10.07;;;;;;;5.70;54.44;96054.63;4991864;28;20037;-63
2022/01/16 11:03:20;;;;;;;17.58;11.80;;;;;;;5.34;55.33;96042.94;4993398;28;20018;-64
2022/01/16 11:05:46;;;;;;;16.40;12.70;;;;;;;5.11;54.22;95928.75;4994191;28;20044;-62
2022/01/16 11:08:14;;;;;;;13.65;7.88;;;;;;;4.85;55.03;95980.44;4992817;28;20539;-62
2022/01/16 11:10:45;;;;;;;15.93;11.50;;;;;;;5.31;54.57;95993.28;4992640;28;20038;-65
2022/01/16 11:13:13;;;;;;;14.53;9.47;;;;;;;5.37;55.61;96076.72;4993201;28;20527;-64
2022/01/16 11:15:42;;;;;;;16.15;12.00;;;;;;;5.82;54.07;96026.22;4993115;28;20050;-68
2022/01/16 11:18:09;;;;;;;17.20;9.50;;;;;;;5.22;54.40;95948.13;4992685;28;20388;-64
2022/01/16 11:20:37;;;;;;;13.10;9.02;;;;;;;5.22;54.15;95970.03;4993335;28;20026;-65
2022/01/16 11:24:24;;;;;;;17.77;13.60;;;;;;;6.36;53.23;96035.91;4994288;28;20022;-64
2022/01/16 11:26:05;;;;;;;20.45;14.63;;;;;;;6.33;52.78;96009.97;4987676;28;20042;-65
2022/01/16 11:28:32;;;;;;;14.18;11.30;;;;;;;6.02;52.65;95974.63;4992697;28;20036;-70
2022/01/16 11:31:04;;;;;;;17.02;13.20;;;;;;;6.68;52.63;96070.97;4991692;28;20065;-63
2022/01/16 11:33:30;;;;;;;23.17;16.60;;;;;;;7.23;52.36;96060.91;4992898;28;20031;-63
2022/01/16 11:36:04;;;;;;;17.58;12.85;;;;;;;7.38;51.21;96063.59;4993436;28;20030;-64
2022/01/16 11:38:33;;;;;;;14.93;13.38;;;;;;;7.27;50.89;96060.13;4993588;28;20122;-61
2022/01/16 11:41:14;;;;;;;19.85;14.00;;;;;;;7.07;52.02;96077.78;4992090;28;20026;-62
2022/01/16 11:43:45;;;;;;;16.42;9.90;;;;;;;6.07;54.03;96036.22;4992373;28;20050;-60
2022/01/16 11:46:18;;;;;;;17.20;13.35;;;;;;;6.88;51.65;95998.88;4991097;28;20023;-63
2022/01/16 11:48:51;;;;;;;13.55;10.07;;;;;;;5.60;53.34;95890.91;4991990;28;20042;-62
2022/01/16 11:51:35;;;;;;;16.02;13.38;;;;;;;7.27;51.21;96080.50;4993280;28;20026;-62
2022/01/16 11:54:09;;;;;;;18.02;9.90;;;;;;;5.73;51.15;95917.66;4991162;28;20420;-65
2022/01/16 11:56:38;;;;;;;13.43;11.52;;;;;;;6.59;52.10;96071.69;4992170;28;20416;-64
2022/01/16 11:59:15;;;;;;;16.63;11.13;;;;;;;6.11;52.36;96090.13;4991513;28;20034;-60